Brownsville, WI (53006)

12:50 AM CDT on August 28, 2016 (GMT -0500)
Farmersville, WI | | Change Station
Active Advisory: Dense Fog Advisory

Elev 961 ft 43.56 °N, 88.54 °W | Updated 4 seconds ago

Overcast
Overcast
67.3 °F
Feels Like 67.3 °F
N
0.0
Wind Variable Wind from SE
Gusts 0.0 mph

Today
High -- | Low -- °F
--% Chance of Precip.
Yesterday
High -- | Low -- °F
Precip. -- in
Pressure 30.11 in
Visibility 6.0 miles
Clouds Overcast 400 ft
Dew Point 67 °F
Humidity 99%
Rainfall 0.00 in
Snow Depth Not available.
6:13 AM 7:35 PM
Waning Crescent, 18% visible
SPECI KFLD 280541Z AUTO 19003KT 6SM BR OVC004 19/18 A3011 RMK AO2 CIG 003V006 T01890183
Pressure 30.11 in
Visibility 6.0 miles
Clouds Overcast 400 ft
Dew Point 67 °F
Humidity 99%
Rainfall 0.00 in
Snow Depth Not available.
6:13 AM 7:35 PM
Waning Crescent, 18% visible
SPECI KFLD 280541Z AUTO 19003KT 6SM BR OVC004 19/18 A3011 RMK AO2 CIG 003V006 T01890183

10-Day Weather Forecast

Almanac

Astronomy

Aug. 28, 2016 Rise Set
Actual Time
Civil Twilight
Nautical Twilight
Astronomical Twilight
Moon
Length of Visible Light
Length of Day
Tomorrow will be .
, % of the Moon is Illuminated

Today's Extremes

State Highs State Lows

Community

WunderPhotos

Upload Photos

1,935,533 photos uploaded!

WunderBlog® & News

Nearby

Air Quality

  Air Quality AQ Index Pollutant
Not available.

Snow Depth

Station Depth Elevation

Earthquake Activity

City Distance Mag. Time & Date
Minimum magnitude displayed is 2.5.

Coastal Water Temperatures

Place Temperature

Stations

Nearby Weather Stations

Station Location Temp. Windchill Dew Point Humidity Wind Precip. Elev Updated Type
                   

Watches & Warnings

Dense Fog Advisory
Issued: 12:36 AM CDT Aug. 28, 2016 – National Weather Service

... Dense fog advisory in effect until 10 am CDT this morning...

The National Weather Service in Milwaukee/Sullivan has issued a
dense fog advisory... which is in effect until 10 am CDT this
morning.

* Timing... tonight into Sunday morning.

* Visibility... less than a quarter mile.

* Impacts... it may be difficult to see the Road if you are out
driving


Precautionary/preparedness actions...

A dense fog advisory means visibilities will frequently be
reduced to less than one quarter mile. If driving... slow down...
use your headlights... and leave plenty of distance ahead of you.



Hentz